sensor_id;sensor_type;location;lat;lon;timestamp;P1;durP1;ratioP1;P2;durP2;ratioP2
33206;SDS011;19565;46.602;11.534;2022-07-12T00:02:23;15.98;;;15.18;;
33206;SDS011;19565;46.602;11.534;2022-07-12T00:04:51;16.30;;;15.50;;
33206;SDS011;19565;46.602;11.534;2022-07-12T00:07:21;17.13;;;16.33;;
33206;SDS011;19565;46.602;11.534;2022-07-12T00:09:49;17.20;;;16.30;;
33206;SDS011;19565;46.602;11.534;2022-07-12T00:12:19;17.20;;;16.40;;
33206;SDS011;19565;46.602;11.534;2022-07-12T00:14:47;17.10;;;16.25;;
33206;SDS011;19565;46.602;11.534;2022-07-12T00:17:15;16.65;;;15.85;;
33206;SDS011;19565;46.602;11.534;2022-07-12T00:19:43;16.20;;;15.40;;
33206;SDS011;19565;46.602;11.534;2022-07-12T00:22:12;17.20;;;16.30;;
33206;SDS011;19565;46.602;11.534;2022-07-12T00:24:42;16.60;;;15.80;;
33206;SDS011;19565;46.602;11.534;2022-07-12T00:27:10;16.77;;;15.98;;
33206;SDS011;19565;46.602;11.534;2022-07-12T00:29:38;16.98;;;16.08;;
33206;SDS011;19565;46.602;11.534;2022-07-12T00:32:06;17.90;;;16.40;;
33206;SDS011;19565;46.602;11.534;2022-07-12T00:34:35;16.40;;;15.60;;
33206;SDS011;19565;46.602;11.534;2022-07-12T00:37:03;16.20;;;15.40;;
33206;SDS011;19565;46.602;11.534;2022-07-12T00:39:31;17.27;;;16.38;;
33206;SDS011;19565;46.602;11.534;2022-07-12T00:42:00;16.88;;;16.00;;
33206;SDS011;19565;46.602;11.534;2022-07-12T00:44:28;17.23;;;16.42;;
33206;SDS011;19565;46.602;11.534;2022-07-12T00:46:59;16.80;;;15.90;;
33206;SDS011;19565;46.602;11.534;2022-07-12T00:49:29;16.33;;;15.52;;
33206;SDS011;19565;46.602;11.534;2022-07-12T00:51:59;17.10;;;16.20;;
33206;SDS011;19565;46.602;11.534;2022-07-12T00:54:27;17.00;;;16.20;;
33206;SDS011;19565;46.602;11.534;2022-07-12T00:56:56;16.77;;;15.98;;
33206;SDS011;19565;46.602;11.534;2022-07-12T00:59:25;16.98;;;16.17;;
33206;SDS011;19565;46.602;11.534;2022-07-12T01:01:53;16.38;;;15.57;;
33206;SDS011;19565;46.602;11.534;2022-07-12T01:04:21;17.27;;;16.48;;
33206;SDS011;19565;46.602;11.534;2022-07-12T01:06:52;17.23;;;16.42;;
33206;SDS011;19565;46.602;11.534;2022-07-12T01:09:20;16.58;;;15.77;;
33206;SDS011;19565;46.602;11.534;2022-07-12T01:11:48;16.95;;;16.15;;
33206;SDS011;19565;46.602;11.534;2022-07-12T01:14:16;16.98;;;16.17;;
33206;SDS011;19565;46.602;11.534;2022-07-12T01:16:46;17.08;;;16.00;;
33206;SDS011;19565;46.602;11.534;2022-07-12T01:19:14;17.27;;;16.38;;
33206;SDS011;19565;46.602;11.534;2022-07-12T01:21:47;17.33;;;16.42;;
33206;SDS011;19565;46.602;11.534;2022-07-12T01:24:17;17.98;;;16.85;;
33206;SDS011;19565;46.602;11.534;2022-07-12T01:26:46;18.85;;;17.85;;
33206;SDS011;19565;46.602;11.534;2022-07-12T01:29:14;18.10;;;17.10;;
33206;SDS011;19565;46.602;11.534;2022-07-12T01:31:43;17.40;;;16.60;;
33206;SDS011;19565;46.602;11.534;2022-07-12T01:34:11;16.75;;;15.95;;
33206;SDS011;19565;46.602;11.534;2022-07-12T01:36:40;16.38;;;15.57;;
33206;SDS011;19565;46.602;11.534;2022-07-12T01:39:09;17.63;;;16.73;;
33206;SDS011;19565;46.602;11.534;2022-07-12T01:41:39;17.60;;;16.70;;
33206;SDS011;19565;46.602;11.534;2022-07-12T01:44:08;17.52;;;16.63;;
33206;SDS011;19565;46.602;11.534;2022-07-12T01:46:36;17.70;;;16.80;;
33206;SDS011;19565;46.602;11.534;2022-07-12T01:49:05;16.60;;;15.80;;
33206;SDS011;19565;46.602;11.534;2022-07-12T01:51:33;17.30;;;16.40;;
33206;SDS011;19565;46.602;11.534;2022-07-12T01:54:01;17.13;;;16.33;;
33206;SDS011;19565;46.602;11.534;2022-07-12T01:56:29;16.85;;;16.05;;
33206;SDS011;19565;46.602;11.534;2022-07-12T01:58:59;16.45;;;15.65;;
33206;SDS011;19565;46.602;11.534;2022-07-12T02:01:27;16.77;;;15.98;;
33206;SDS011;19565;46.602;11.534;2022-07-12T02:03:56;17.10;;;16.30;;
33206;SDS011;19565;46.602;11.534;2022-07-12T02:06:28;16.45;;;15.65;;
33206;SDS011;19565;46.602;11.534;2022-07-12T02:08:57;17.00;;;16.20;;
33206;SDS011;19565;46.602;11.534;2022-07-12T02:11:25;17.55;;;16.60;;
33206;SDS011;19565;46.602;11.534;2022-07-12T02:13:53;16.45;;;15.65;;
33206;SDS011;19565;46.602;11.534;2022-07-12T02:16:24;17.88;;;17.08;;
33206;SDS011;19565;46.602;11.534;2022-07-12T02:18:52;17.40;;;16.60;;
33206;SDS011;19565;46.602;11.534;2022-07-12T02:21:20;17.30;;;16.40;;
33206;SDS011;19565;46.602;11.534;2022-07-12T02:23:48;17.27;;;16.48;;
33206;SDS011;19565;46.602;11.534;2022-07-12T02:26:16;17.80;;;16.90;;
33206;SDS011;19565;46.602;11.534;2022-07-12T02:28:44;18.48;;;17.58;;
33206;SDS011;19565;46.602;11.534;2022-07-12T02:31:12;16.95;;;16.15;;
33206;SDS011;19565;46.602;11.534;2022-07-12T02:33:42;17.25;;;16.45;;
33206;SDS011;19565;46.602;11.534;2022-07-12T02:36:10;17.58;;;16.60;;
33206;SDS011;19565;46.602;11.534;2022-07-12T02:38:38;16.92;;;16.13;;
33206;SDS011;19565;46.602;11.534;2022-07-12T02:41:06;17.10;;;16.30;;
33206;SDS011;19565;46.602;11.534;2022-07-12T02:43:34;16.58;;;15.77;;
33206;SDS011;19565;46.602;11.534;2022-07-12T02:46:03;16.92;;;16.13;;
33206;SDS011;19565;46.602;11.534;2022-07-12T02:48:33;16.67;;;15.88;;
33206;SDS011;19565;46.602;11.534;2022-07-12T02:51:03;16.33;;;15.52;;
33206;SDS011;19565;46.602;11.534;2022-07-12T02:53:32;16.70;;;15.80;;
33206;SDS011;19565;46.602;11.534;2022-07-12T02:56:07;16.30;;;15.50;;
33206;SDS011;19565;46.602;11.534;2022-07-12T02:58:36;16.70;;;15.90;;
33206;SDS011;19565;46.602;11.534;2022-07-12T03:01:04;16.90;;;16.00;;
33206;SDS011;19565;46.602;11.534;2022-07-12T03:03:33;16.20;;;15.40;;
33206;SDS011;19565;46.602;11.534;2022-07-12T03:06:02;16.23;;;15.43;;
33206;SDS011;19565;46.602;11.534;2022-07-12T03:08:30;16.58;;;15.77;;
33206;SDS011;19565;46.602;11.534;2022-07-12T03:10:59;16.30;;;15.50;;
33206;SDS011;19565;46.602;11.534;2022-07-12T03:13:26;17.10;;;16.00;;
33206;SDS011;19565;46.602;11.534;2022-07-12T03:15:55;16.02;;;15.23;;
33206;SDS011;19565;46.602;11.534;2022-07-12T03:18:23;16.77;;;15.88;;
33206;SDS011;19565;46.602;11.534;2022-07-12T03:20:51;17.05;;;16.15;;
33206;SDS011;19565;46.602;11.534;2022-07-12T03:23:21;16.33;;;15.32;;
33206;SDS011;19565;46.602;11.534;2022-07-12T03:25:51;15.65;;;14.85;;
33206;SDS011;19565;46.602;11.534;2022-07-12T03:28:19;15.85;;;15.05;;
33206;SDS011;19565;46.602;11.534;2022-07-12T03:30:47;15.80;;;15.00;;
33206;SDS011;19565;46.602;11.534;2022-07-12T03:33:15;16.40;;;15.60;;
33206;SDS011;19565;46.602;11.534;2022-07-12T03:35:43;16.58;;;15.77;;
33206;SDS011;19565;46.602;11.534;2022-07-12T03:38:12;16.45;;;15.65;;
33206;SDS011;19565;46.602;11.534;2022-07-12T03:40:41;16.20;;;15.10;;
33206;SDS011;19565;46.602;11.534;2022-07-12T03:43:10;16.27;;;15.48;;
33206;SDS011;19565;46.602;11.534;2022-07-12T03:45:38;16.70;;;15.90;;
33206;SDS011;19565;46.602;11.534;2022-07-12T03:48:09;17.23;;;16.00;;
33206;SDS011;19565;46.602;11.534;2022-07-12T03:50:37;28.30;;;27.10;;
33206;SDS011;19565;46.602;11.534;2022-07-12T03:53:05;28.08;;;26.88;;
33206;SDS011;19565;46.602;11.534;2022-07-12T03:55:33;30.50;;;29.20;;
33206;SDS011;19565;46.602;11.534;2022-07-12T03:58:03;38.53;;;37.03;;
33206;SDS011;19565;46.602;11.534;2022-07-12T04:00:31;34.33;;;32.92;;
33206;SDS011;19565;46.602;11.534;2022-07-12T04:02:59;31.27;;;29.98;;
33206;SDS011;19565;46.602;11.534;2022-07-12T04:05:27;33.55;;;32.05;;
33206;SDS011;19565;46.602;11.534;2022-07-12T04:07:55;36.30;;;34.80;;
33206;SDS011;19565;46.602;11.534;2022-07-12T04:10:23;31.42;;;30.13;;
33206;SDS011;19565;46.602;11.534;2022-07-12T04:12:51;29.00;;;27.80;;
33206;SDS011;19565;46.602;11.534;2022-07-12T04:15:21;26.40;;;25.30;;
33206;SDS011;19565;46.602;11.534;2022-07-12T04:17:49;28.33;;;27.13;;
33206;SDS011;19565;46.602;11.534;2022-07-12T04:20:18;24.42;;;23.23;;
33206;SDS011;19565;46.602;11.534;2022-07-12T04:22:46;28.13;;;26.92;;
33206;SDS011;19565;46.602;11.534;2022-07-12T04:25:15;27.90;;;26.70;;
33206;SDS011;19565;46.602;11.534;2022-07-12T04:27:43;31.33;;;29.92;;
33206;SDS011;19565;46.602;11.534;2022-07-12T04:30:13;26.42;;;25.33;;
33206;SDS011;19565;46.602;11.534;2022-07-12T04:32:42;31.77;;;30.00;;
33206;SDS011;19565;46.602;11.534;2022-07-12T04:35:11;29.08;;;27.77;;
33206;SDS011;19565;46.602;11.534;2022-07-12T04:37:39;30.52;;;29.15;;
33206;SDS011;19565;46.602;11.534;2022-07-12T04:40:08;27.67;;;26.35;;
33206;SDS011;19565;46.602;11.534;2022-07-12T04:42:37;23.98;;;22.88;;
33206;SDS011;19565;46.602;11.534;2022-07-12T04:45:05;27.90;;;26.70;;
33206;SDS011;19565;46.602;11.534;2022-07-12T04:47:35;29.00;;;27.33;;
33206;SDS011;19565;46.602;11.534;2022-07-12T04:50:06;29.23;;;27.92;;
33206;SDS011;19565;46.602;11.534;2022-07-12T04:52:34;29.58;;;28.27;;
33206;SDS011;19565;46.602;11.534;2022-07-12T04:55:03;25.75;;;24.65;;
33206;SDS011;19565;46.602;11.534;2022-07-12T04:57:32;24.63;;;23.52;;
33206;SDS011;19565;46.602;11.534;2022-07-12T05:00:00;25.95;;;24.85;;
33206;SDS011;19565;46.602;11.534;2022-07-12T05:02:28;22.20;;;21.20;;
33206;SDS011;19565;46.602;11.534;2022-07-12T05:04:56;24.50;;;23.40;;
33206;SDS011;19565;46.602;11.534;2022-07-12T05:07:26;22.60;;;21.50;;
33206;SDS011;19565;46.602;11.534;2022-07-12T05:09:54;23.20;;;22.10;;
33206;SDS011;19565;46.602;11.534;2022-07-12T05:12:22;25.13;;;24.02;;
33206;SDS011;19565;46.602;11.534;2022-07-12T05:14:50;26.33;;;25.13;;
33206;SDS011;19565;46.602;11.534;2022-07-12T05:17:18;25.02;;;23.92;;
33206;SDS011;19565;46.602;11.534;2022-07-12T05:19:46;24.73;;;23.63;;
33206;SDS011;19565;46.602;11.534;2022-07-12T05:22:14;22.52;;;21.25;;
33206;SDS011;19565;46.602;11.534;2022-07-12T05:24:44;25.98;;;24.80;;
33206;SDS011;19565;46.602;11.534;2022-07-12T05:27:12;25.67;;;24.58;;
33206;SDS011;19565;46.602;11.534;2022-07-12T05:29:40;26.95;;;25.75;;
33206;SDS011;19565;46.602;11.534;2022-07-12T05:32:08;29.33;;;27.92;;
33206;SDS011;19565;46.602;11.534;2022-07-12T05:34:36;29.70;;;28.40;;
33206;SDS011;19565;46.602;11.534;2022-07-12T05:37:05;25.38;;;24.27;;
33206;SDS011;19565;46.602;11.534;2022-07-12T05:39:33;29.95;;;28.65;;
33206;SDS011;19565;46.602;11.534;2022-07-12T05:42:09;28.38;;;27.08;;
33206;SDS011;19565;46.602;11.534;2022-07-12T05:44:37;30.58;;;29.23;;
33206;SDS011;19565;46.602;11.534;2022-07-12T05:47:05;31.85;;;30.45;;
33206;SDS011;19565;46.602;11.534;2022-07-12T05:49:34;26.50;;;25.30;;
33206;SDS011;19565;46.602;11.534;2022-07-12T05:52:02;31.20;;;29.80;;
33206;SDS011;19565;46.602;11.534;2022-07-12T05:54:48;34.90;;;33.30;;
33206;SDS011;19565;46.602;11.534;2022-07-12T05:57:17;25.63;;;24.52;;
33206;SDS011;19565;46.602;11.534;2022-07-12T05:59:46;24.60;;;23.50;;
33206;SDS011;19565;46.602;11.534;2022-07-12T06:02:14;28.95;;;27.67;;
33206;SDS011;19565;46.602;11.534;2022-07-12T06:04:42;26.30;;;25.17;;
33206;SDS011;19565;46.602;11.534;2022-07-12T06:07:16;24.60;;;23.50;;
33206;SDS011;19565;46.602;11.534;2022-07-12T06:09:44;23.92;;;22.73;;
33206;SDS011;19565;46.602;11.534;2022-07-12T06:12:13;19.92;;;19.02;;
33206;SDS011;19565;46.602;11.534;2022-07-12T06:14:42;24.98;;;23.88;;
33206;SDS011;19565;46.602;11.534;2022-07-12T06:17:10;21.92;;;20.92;;
33206;SDS011;19565;46.602;11.534;2022-07-12T06:19:38;22.20;;;21.20;;
33206;SDS011;19565;46.602;11.534;2022-07-12T06:22:08;22.40;;;21.40;;
33206;SDS011;19565;46.602;11.534;2022-07-12T06:24:37;23.60;;;22.60;;
33206;SDS011;19565;46.602;11.534;2022-07-12T06:27:05;36.83;;;35.13;;
33206;SDS011;19565;46.602;11.534;2022-07-12T06:29:33;29.88;;;28.48;;
33206;SDS011;19565;46.602;11.534;2022-07-12T06:32:05;23.80;;;22.70;;
33206;SDS011;19565;46.602;11.534;2022-07-12T06:34:35;30.67;;;29.38;;
33206;SDS011;19565;46.602;11.534;2022-07-12T06:37:05;43.88;;;42.08;;
33206;SDS011;19565;46.602;11.534;2022-07-12T06:39:35;48.92;;;46.90;;
33206;SDS011;19565;46.602;11.534;2022-07-12T06:42:04;52.17;;;49.97;;
33206;SDS011;19565;46.602;11.534;2022-07-12T06:44:33;57.22;;;54.83;;
33206;SDS011;19565;46.602;11.534;2022-07-12T06:47:01;49.85;;;47.80;;
33206;SDS011;19565;46.602;11.534;2022-07-12T06:49:31;49.58;;;47.58;;
33206;SDS011;19565;46.602;11.534;2022-07-12T06:51:59;57.08;;;54.75;;
33206;SDS011;19565;46.602;11.534;2022-07-12T06:54:27;51.53;;;49.42;;
33206;SDS011;19565;46.602;11.534;2022-07-12T06:56:55;50.47;;;48.35;;
33206;SDS011;19565;46.602;11.534;2022-07-12T06:59:23;23.10;;;22.00;;
33206;SDS011;19565;46.602;11.534;2022-07-12T07:01:51;47.15;;;45.15;;
33206;SDS011;19565;46.602;11.534;2022-07-12T07:04:22;45.00;;;43.10;;
33206;SDS011;19565;46.602;11.534;2022-07-12T07:06:51;42.92;;;40.92;;
33206;SDS011;19565;46.602;11.534;2022-07-12T07:09:19;67.80;;;65.00;;
33206;SDS011;19565;46.602;11.534;2022-07-12T07:11:47;63.88;;;61.17;;
33206;SDS011;19565;46.602;11.534;2022-07-12T07:14:15;57.88;;;55.47;;
33206;SDS011;19565;46.602;11.534;2022-07-12T07:16:43;55.75;;;53.33;;
33206;SDS011;19565;46.602;11.534;2022-07-12T07:19:12;54.30;;;52.03;;
33206;SDS011;19565;46.602;11.534;2022-07-12T07:21:47;58.88;;;56.38;;
33206;SDS011;19565;46.602;11.534;2022-07-12T07:24:17;55.00;;;52.70;;
33206;SDS011;19565;46.602;11.534;2022-07-12T07:26:45;53.58;;;51.38;;
33206;SDS011;19565;46.602;11.534;2022-07-12T07:29:19;54.33;;;52.03;;
33206;SDS011;19565;46.602;11.534;2022-07-12T07:32:04;54.97;;;52.67;;
33206;SDS011;19565;46.602;11.534;2022-07-12T07:34:33;53.03;;;50.83;;
33206;SDS011;19565;46.602;11.534;2022-07-12T07:37:01;55.65;;;53.35;;
33206;SDS011;19565;46.602;11.534;2022-07-12T07:39:31;58.88;;;56.30;;
33206;SDS011;19565;46.602;11.534;2022-07-12T07:41:59;55.50;;;53.20;;
33206;SDS011;19565;46.602;11.534;2022-07-12T07:44:29;55.63;;;53.33;;
33206;SDS011;19565;46.602;11.534;2022-07-12T07:46:59;54.85;;;52.55;;
33206;SDS011;19565;46.602;11.534;2022-07-12T07:49:27;53.70;;;51.47;;
33206;SDS011;19565;46.602;11.534;2022-07-12T07:51:56;54.00;;;51.70;;
33206;SDS011;19565;46.602;11.534;2022-07-12T07:54:24;57.85;;;55.45;;
33206;SDS011;19565;46.602;11.534;2022-07-12T07:56:53;56.83;;;54.42;;
33206;SDS011;19565;46.602;11.534;2022-07-12T07:59:27;58.90;;;56.35;;
33206;SDS011;19565;46.602;11.534;2022-07-12T08:01:55;56.47;;;54.08;;
33206;SDS011;19565;46.602;11.534;2022-07-12T08:04:24;57.25;;;54.85;;
33206;SDS011;19565;46.602;11.534;2022-07-12T08:06:54;57.80;;;55.38;;
33206;SDS011;19565;46.602;11.534;2022-07-12T08:09:22;57.25;;;54.75;;
33206;SDS011;19565;46.602;11.534;2022-07-12T08:11:50;58.78;;;56.28;;
33206;SDS011;19565;46.602;11.534;2022-07-12T08:14:20;56.35;;;54.03;;
33206;SDS011;19565;46.602;11.534;2022-07-12T08:16:48;65.30;;;62.40;;
33206;SDS011;19565;46.602;11.534;2022-07-12T08:19:16;61.75;;;59.15;;
33206;SDS011;19565;46.602;11.534;2022-07-12T08:21:44;60.42;;;57.90;;
33206;SDS011;19565;46.602;11.534;2022-07-12T08:24:12;59.88;;;57.38;;
33206;SDS011;19565;46.602;11.534;2022-07-12T08:26:40;61.80;;;59.20;;
33206;SDS011;19565;46.602;11.534;2022-07-12T08:29:08;58.10;;;55.70;;
33206;SDS011;19565;46.602;11.534;2022-07-12T08:31:38;59.15;;;56.65;;
33206;SDS011;19565;46.602;11.534;2022-07-12T08:34:06;52.65;;;50.45;;
33206;SDS011;19565;46.602;11.534;2022-07-12T08:36:35;58.33;;;55.92;;
33206;SDS011;19565;46.602;11.534;2022-07-12T08:39:03;54.80;;;52.50;;
33206;SDS011;19565;46.602;11.534;2022-07-12T08:41:31;54.65;;;52.35;;
33206;SDS011;19565;46.602;11.534;2022-07-12T08:43:59;55.70;;;53.40;;
33206;SDS011;19565;46.602;11.534;2022-07-12T08:46:28;57.70;;;55.30;;
33206;SDS011;19565;46.602;11.534;2022-07-12T08:49:04;58.55;;;56.05;;
33206;SDS011;19565;46.602;11.534;2022-07-12T08:51:33;57.45;;;55.05;;
33206;SDS011;19565;46.602;11.534;2022-07-12T08:54:06;61.92;;;59.33;;
33206;SDS011;19565;46.602;11.534;2022-07-12T08:56:36;64.72;;;62.03;;
33206;SDS011;19565;46.602;11.534;2022-07-12T08:59:08;61.78;;;59.17;;
33206;SDS011;19565;46.602;11.534;2022-07-12T09:01:41;67.00;;;64.18;;
33206;SDS011;19565;46.602;11.534;2022-07-12T09:04:14;68.82;;;65.95;;
33206;SDS011;19565;46.602;11.534;2022-07-12T09:06:43;68.15;;;65.35;;
33206;SDS011;19565;46.602;11.534;2022-07-12T09:09:12;70.05;;;67.15;;
33206;SDS011;19565;46.602;11.534;2022-07-12T09:11:53;68.03;;;64.72;;
33206;SDS011;19565;46.602;11.534;2022-07-12T09:14:21;70.72;;;67.82;;
33206;SDS011;19565;46.602;11.534;2022-07-12T09:16:59;61.45;;;58.88;;
33206;SDS011;19565;46.602;11.534;2022-07-12T09:19:30;62.22;;;59.63;;
33206;SDS011;19565;46.602;11.534;2022-07-12T09:21:59;60.55;;;57.95;;
33206;SDS011;19565;46.602;11.534;2022-07-12T09:24:27;62.95;;;60.08;;
33206;SDS011;19565;46.602;11.534;2022-07-12T09:26:57;65.82;;;63.05;;
33206;SDS011;19565;46.602;11.534;2022-07-12T09:29:27;61.33;;;58.63;;
33206;SDS011;19565;46.602;11.534;2022-07-12T09:31:55;60.58;;;58.00;;
33206;SDS011;19565;46.602;11.534;2022-07-12T09:34:42;63.75;;;61.05;;
33206;SDS011;19565;46.602;11.534;2022-07-12T09:37:28;63.97;;;61.28;;
33206;SDS011;19565;46.602;11.534;2022-07-12T09:40:06;65.00;;;62.20;;
33206;SDS011;19565;46.602;11.534;2022-07-12T09:42:35;63.70;;;60.55;;
33206;SDS011;19565;46.602;11.534;2022-07-12T09:45:05;64.82;;;62.08;;
33206;SDS011;19565;46.602;11.534;2022-07-12T09:47:35;65.28;;;62.50;;
33206;SDS011;19565;46.602;11.534;2022-07-12T09:50:05;64.30;;;61.60;;
33206;SDS011;19565;46.602;11.534;2022-07-12T09:52:37;65.57;;;62.78;;
33206;SDS011;19565;46.602;11.534;2022-07-12T09:55:07;63.78;;;61.08;;
33206;SDS011;19565;46.602;11.534;2022-07-12T09:57:39;65.43;;;62.72;;
33206;SDS011;19565;46.602;11.534;2022-07-12T10:00:08;70.57;;;67.68;;
33206;SDS011;19565;46.602;11.534;2022-07-12T10:02:38;61.08;;;58.47;;
33206;SDS011;19565;46.602;11.534;2022-07-12T10:05:09;62.50;;;59.90;;
33206;SDS011;19565;46.602;11.534;2022-07-12T10:07:38;62.60;;;59.90;;
33206;SDS011;19565;46.602;11.534;2022-07-12T10:10:06;70.03;;;67.13;;
33206;SDS011;19565;46.602;11.534;2022-07-12T10:12:36;66.50;;;63.72;;
33206;SDS011;19565;46.602;11.534;2022-07-12T10:15:07;70.95;;;68.05;;
33206;SDS011;19565;46.602;11.534;2022-07-12T10:17:41;70.40;;;67.50;;
33206;SDS011;19565;46.602;11.534;2022-07-12T10:20:16;65.47;;;62.72;;
33206;SDS011;19565;46.602;11.534;2022-07-12T10:22:45;74.90;;;71.57;;
33206;SDS011;19565;46.602;11.534;2022-07-12T10:25:29;73.65;;;70.55;;
33206;SDS011;19565;46.602;11.534;2022-07-12T10:27:58;72.53;;;69.53;;
33206;SDS011;19565;46.602;11.534;2022-07-12T10:30:27;71.20;;;68.22;;
33206;SDS011;19565;46.602;11.534;2022-07-12T10:32:58;73.32;;;70.32;;
33206;SDS011;19565;46.602;11.534;2022-07-12T10:35:29;68.75;;;65.85;;
33206;SDS011;19565;46.602;11.534;2022-07-12T10:38:16;67.88;;;64.97;;
33206;SDS011;19565;46.602;11.534;2022-07-12T10:40:48;67.65;;;64.70;;
33206;SDS011;19565;46.602;11.534;2022-07-12T10:43:18;70.35;;;67.45;;
33206;SDS011;19565;46.602;11.534;2022-07-12T10:46:22;63.95;;;61.25;;
33206;SDS011;19565;46.602;11.534;2022-07-12T10:57:45;65.72;;;62.95;;
33206;SDS011;19565;46.602;11.534;2022-07-12T11:00:17;68.63;;;65.75;;
33206;SDS011;19565;46.602;11.534;2022-07-12T11:02:46;66.00;;;63.20;;
33206;SDS011;19565;46.602;11.534;2022-07-12T11:05:14;64.53;;;61.83;;
33206;SDS011;19565;46.602;11.534;2022-07-12T11:07:43;64.57;;;61.78;;
33206;SDS011;19565;46.602;11.534;2022-07-12T11:10:12;65.85;;;62.53;;
33206;SDS011;19565;46.602;11.534;2022-07-12T11:12:41;66.55;;;63.65;;
33206;SDS011;19565;46.602;11.534;2022-07-12T11:15:09;63.33;;;60.63;;
33206;SDS011;19565;46.602;11.534;2022-07-12T11:17:39;58.28;;;55.78;;
33206;SDS011;19565;46.602;11.534;2022-07-12T11:20:08;60.25;;;57.65;;
33206;SDS011;19565;46.602;11.534;2022-07-12T11:22:38;59.50;;;57.00;;
33206;SDS011;19565;46.602;11.534;2022-07-12T11:25:09;57.03;;;54.63;;
33206;SDS011;19565;46.602;11.534;2022-07-12T11:27:38;58.63;;;56.15;;
33206;SDS011;19565;46.602;11.534;2022-07-12T11:30:11;54.92;;;52.60;;
33206;SDS011;19565;46.602;11.534;2022-07-12T11:32:40;56.15;;;53.78;;
33206;SDS011;19565;46.602;11.534;2022-07-12T11:35:17;55.70;;;53.40;;
33206;SDS011;19565;46.602;11.534;2022-07-12T11:37:52;60.05;;;57.55;;
33206;SDS011;19565;46.602;11.534;2022-07-12T11:40:23;57.67;;;55.28;;
33206;SDS011;19565;46.602;11.534;2022-07-12T11:42:53;51.50;;;49.40;;
33206;SDS011;19565;46.602;11.534;2022-07-12T11:45:25;49.05;;;47.05;;
33206;SDS011;19565;46.602;11.534;2022-07-12T11:47:54;48.75;;;46.70;;
33206;SDS011;19565;46.602;11.534;2022-07-12T11:50:23;49.30;;;47.20;;
33206;SDS011;19565;46.602;11.534;2022-07-12T11:52:59;49.45;;;47.35;;
33206;SDS011;19565;46.602;11.534;2022-07-12T11:55:29;58.22;;;55.83;;
33206;SDS011;19565;46.602;11.534;2022-07-12T11:58:03;58.00;;;55.60;;
33206;SDS011;19565;46.602;11.534;2022-07-12T12:00:31;59.70;;;57.20;;
33206;SDS011;19565;46.602;11.534;2022-07-12T12:03:00;55.90;;;53.60;;
33206;SDS011;19565;46.602;11.534;2022-07-12T12:05:28;58.88;;;56.38;;
33206;SDS011;19565;46.602;11.534;2022-07-12T12:07:57;61.10;;;58.60;;
33206;SDS011;19565;46.602;11.534;2022-07-12T12:10:25;61.05;;;58.45;;
33206;SDS011;19565;46.602;11.534;2022-07-12T12:12:55;55.70;;;53.40;;
33206;SDS011;19565;46.602;11.534;2022-07-12T12:15:25;56.90;;;54.50;;
33206;SDS011;19565;46.602;11.534;2022-07-12T12:17:54;51.47;;;49.38;;
33206;SDS011;19565;46.602;11.534;2022-07-12T12:20:24;52.58;;;50.42;;
33206;SDS011;19565;46.602;11.534;2022-07-12T12:22:54;51.45;;;49.35;;
33206;SDS011;19565;46.602;11.534;2022-07-12T12:25:25;52.72;;;50.53;;
33206;SDS011;19565;46.602;11.534;2022-07-12T12:27:57;56.35;;;53.70;;
33206;SDS011;19565;46.602;11.534;2022-07-12T12:30:48;56.05;;;53.75;;
33206;SDS011;19565;46.602;11.534;2022-07-12T12:33:33;58.85;;;56.45;;
33206;SDS011;19565;46.602;11.534;2022-07-12T12:36:16;55.58;;;53.28;;
33206;SDS011;19565;46.602;11.534;2022-07-12T12:38:47;58.80;;;56.33;;
33206;SDS011;19565;46.602;11.534;2022-07-12T12:41:17;62.25;;;59.65;;
33206;SDS011;19565;46.602;11.534;2022-07-12T12:43:57;66.03;;;63.22;;
33206;SDS011;19565;46.602;11.534;2022-07-12T12:46:50;52.30;;;50.15;;
33206;SDS011;19565;46.602;11.534;2022-07-12T12:52:17;60.72;;;58.22;;
33206;SDS011;19565;46.602;11.534;2022-07-12T12:54:46;63.10;;;60.50;;
33206;SDS011;19565;46.602;11.534;2022-07-12T12:57:14;65.68;;;62.97;;
33206;SDS011;19565;46.602;11.534;2022-07-12T12:59:43;61.63;;;59.03;;
33206;SDS011;19565;46.602;11.534;2022-07-12T13:02:12;57.50;;;55.20;;
33206;SDS011;19565;46.602;11.534;2022-07-12T13:04:40;57.08;;;54.78;;
33206;SDS011;19565;46.602;11.534;2022-07-12T13:07:09;57.80;;;55.35;;
33206;SDS011;19565;46.602;11.534;2022-07-12T13:09:39;60.15;;;57.65;;
33206;SDS011;19565;46.602;11.534;2022-07-12T13:12:07;60.13;;;57.55;;
33206;SDS011;19565;46.602;11.534;2022-07-12T13:14:36;60.10;;;57.60;;
33206;SDS011;19565;46.602;11.534;2022-07-12T13:17:06;52.13;;;50.00;;
33206;SDS011;19565;46.602;11.534;2022-07-12T13:19:34;60.78;;;58.28;;
33206;SDS011;19565;46.602;11.534;2022-07-12T13:22:03;61.80;;;59.25;;
33206;SDS011;19565;46.602;11.534;2022-07-12T13:24:32;59.58;;;57.08;;
33206;SDS011;19565;46.602;11.534;2022-07-12T13:27:00;67.13;;;64.40;;
33206;SDS011;19565;46.602;11.534;2022-07-12T13:29:28;65.40;;;62.70;;
33206;SDS011;19565;46.602;11.534;2022-07-12T13:31:56;61.72;;;59.20;;
33206;SDS011;19565;46.602;11.534;2022-07-12T13:34:26;59.70;;;57.25;;
33206;SDS011;19565;46.602;11.534;2022-07-12T13:36:56;65.68;;;62.78;;
33206;SDS011;19565;46.602;11.534;2022-07-12T13:39:24;62.72;;;60.00;;
33206;SDS011;19565;46.602;11.534;2022-07-12T13:42:10;61.78;;;59.28;;
33206;SDS011;19565;46.602;11.534;2022-07-12T13:44:38;59.58;;;57.10;;
33206;SDS011;19565;46.602;11.534;2022-07-12T13:47:06;66.57;;;63.88;;
33206;SDS011;19565;46.602;11.534;2022-07-12T13:49:35;62.92;;;60.33;;
33206;SDS011;19565;46.602;11.534;2022-07-12T13:52:04;63.70;;;61.10;;
33206;SDS011;19565;46.602;11.534;2022-07-12T13:54:33;59.17;;;56.78;;
33206;SDS011;19565;46.602;11.534;2022-07-12T13:57:02;62.28;;;59.67;;
33206;SDS011;19565;46.602;11.534;2022-07-12T13:59:30;61.78;;;59.20;;
33206;SDS011;19565;46.602;11.534;2022-07-12T14:01:58;63.53;;;60.92;;
33206;SDS011;19565;46.602;11.534;2022-07-12T14:04:26;61.65;;;58.47;;
33206;SDS011;19565;46.602;11.534;2022-07-12T14:06:56;63.95;;;61.30;;
33206;SDS011;19565;46.602;11.534;2022-07-12T14:09:24;62.35;;;59.70;;
33206;SDS011;19565;46.602;11.534;2022-07-12T14:11:52;63.30;;;60.63;;
33206;SDS011;19565;46.602;11.534;2022-07-12T14:14:21;62.13;;;59.63;;
33206;SDS011;19565;46.602;11.534;2022-07-12T14:17:13;57.67;;;55.38;;
33206;SDS011;19565;46.602;11.534;2022-07-12T14:19:41;63.58;;;60.97;;
33206;SDS011;19565;46.602;11.534;2022-07-12T14:22:11;65.82;;;62.97;;
33206;SDS011;19565;46.602;11.534;2022-07-12T14:24:39;60.30;;;57.80;;
33206;SDS011;19565;46.602;11.534;2022-07-12T14:27:07;61.72;;;58.53;;
33206;SDS011;19565;46.602;11.534;2022-07-12T14:29:35;53.05;;;50.85;;
33206;SDS011;19565;46.602;11.534;2022-07-12T14:32:03;57.42;;;55.03;;
33206;SDS011;19565;46.602;11.534;2022-07-12T14:34:32;60.13;;;57.63;;
33206;SDS011;19565;46.602;11.534;2022-07-12T14:37:00;63.70;;;61.00;;